sensor_id;sensor_type;location;lat;lon;timestamp;pressure;altitude;pressure_sealevel;temperature;humidity
84928;BME280;75189;50.640;19.242;2024-03-22T00:05:21;102075.96;;;10.23;61.01
84928;BME280;75189;50.640;19.242;2024-03-22T00:11:28;102068.61;;;10.26;60.95
84928;BME280;75189;50.640;19.242;2024-03-22T00:17:35;102074.77;;;10.30;60.89
84928;BME280;75189;50.640;19.242;2024-03-22T00:23:43;102070.19;;;10.32;60.85
84928;BME280;75189;50.640;19.242;2024-03-22T00:30:09;102068.15;;;10.37;60.85
84928;BME280;75189;50.640;19.242;2024-03-22T00:36:16;102064.41;;;10.39;60.88
84928;BME280;75189;50.640;19.242;2024-03-22T00:42:23;102056.21;;;10.41;60.91
84928;BME280;75189;50.640;19.242;2024-03-22T00:48:30;102054.37;;;10.41;61.05
84928;BME280;75189;50.640;19.242;2024-03-22T00:54:37;102055.24;;;10.42;61.18
84928;BME280;75189;50.640;19.242;2024-03-22T01:00:47;102056.96;;;10.44;61.39
84928;BME280;75189;50.640;19.242;2024-03-22T01:06:54;102054.02;;;10.49;61.44
84928;BME280;75189;50.640;19.242;2024-03-22T01:13:01;102049.30;;;10.54;61.50
84928;BME280;75189;50.640;19.242;2024-03-22T01:19:25;102054.59;;;10.57;61.54
84928;BME280;75189;50.640;19.242;2024-03-22T01:25:33;102048.20;;;10.58;61.60
84928;BME280;75189;50.640;19.242;2024-03-22T01:31:40;102053.64;;;10.58;61.63
84928;BME280;75189;50.640;19.242;2024-03-22T01:37:47;102045.62;;;10.55;61.74
84928;BME280;75189;50.640;19.242;2024-03-22T01:43:54;102053.72;;;10.57;61.83
84928;BME280;75189;50.640;19.242;2024-03-22T01:50:01;102050.11;;;10.56;62.02
84928;BME280;75189;50.640;19.242;2024-03-22T01:56:09;102057.32;;;10.57;62.16
84928;BME280;75189;50.640;19.242;2024-03-22T02:02:17;102055.62;;;10.55;62.55
84928;BME280;75189;50.640;19.242;2024-03-22T02:08:42;102054.87;;;10.51;63.06
84928;BME280;75189;50.640;19.242;2024-03-22T02:14:50;102047.66;;;10.50;63.33
84928;BME280;75189;50.640;19.242;2024-03-22T02:20:58;102053.02;;;10.52;63.68
84928;BME280;75189;50.640;19.242;2024-03-22T02:27:05;102066.64;;;10.52;63.83
84928;BME280;75189;50.640;19.242;2024-03-22T02:33:12;102064.80;;;10.52;63.90
84928;BME280;75189;50.640;19.242;2024-03-22T02:39:18;102063.84;;;10.53;64.00
84928;BME280;75189;50.640;19.242;2024-03-22T02:45:26;102049.15;;;10.57;64.09
84928;BME280;75189;50.640;19.242;2024-03-22T02:51:33;102037.37;;;10.57;64.15
84928;BME280;75189;50.640;19.242;2024-03-22T02:58:00;102040.22;;;10.54;64.46
84928;BME280;75189;50.640;19.242;2024-03-22T03:04:07;102029.28;;;10.55;64.53
84928;BME280;75189;50.640;19.242;2024-03-22T03:10:14;102043.09;;;10.51;64.67
84928;BME280;75189;50.640;19.242;2024-03-22T03:16:21;102039.34;;;10.53;64.62
84928;BME280;75189;50.640;19.242;2024-03-22T03:22:28;102042.20;;;10.50;64.70
84928;BME280;75189;50.640;19.242;2024-03-22T03:28:34;102034.23;;;10.45;64.72
84928;BME280;75189;50.640;19.242;2024-03-22T03:34:42;102038.84;;;10.43;64.88
84928;BME280;75189;50.640;19.242;2024-03-22T03:40:49;102038.16;;;10.38;64.98
84928;BME280;75189;50.640;19.242;2024-03-22T03:47:16;102033.73;;;10.36;65.06
84928;BME280;75189;50.640;19.242;2024-03-22T03:53:24;102019.29;;;10.34;65.16
84928;BME280;75189;50.640;19.242;2024-03-22T03:59:31;102018.40;;;10.33;65.34
84928;BME280;75189;50.640;19.242;2024-03-22T04:05:38;102014.88;;;10.31;65.41
84928;BME280;75189;50.640;19.242;2024-03-22T04:11:45;102016.76;;;10.29;65.53
84928;BME280;75189;50.640;19.242;2024-03-22T04:17:52;102018.68;;;10.27;65.70
84928;BME280;75189;50.640;19.242;2024-03-22T04:24:00;102012.34;;;10.27;65.78
84928;BME280;75189;50.640;19.242;2024-03-22T04:30:08;102024.23;;;10.24;65.87
84928;BME280;75189;50.640;19.242;2024-03-22T04:36:33;102040.01;;;10.14;66.12
84928;BME280;75189;50.640;19.242;2024-03-22T04:42:40;102028.24;;;10.14;66.31
84928;BME280;75189;50.640;19.242;2024-03-22T04:48:48;102031.16;;;10.09;66.48
84928;BME280;75189;50.640;19.242;2024-03-22T04:54:55;102022.15;;;10.07;66.74
84928;BME280;75189;50.640;19.242;2024-03-22T05:01:02;102027.54;;;10.09;66.80
84928;BME280;75189;50.640;19.242;2024-03-22T05:07:09;102050.27;;;10.08;66.80
84928;BME280;75189;50.640;19.242;2024-03-22T05:13:16;102043.28;;;10.01;67.09
84928;BME280;75189;50.640;19.242;2024-03-22T05:19:23;102032.46;;;9.99;67.12
84928;BME280;75189;50.640;19.242;2024-03-22T05:25:50;102036.66;;;10.08;66.96
84928;BME280;75189;50.640;19.242;2024-03-22T05:31:56;102034.64;;;10.13;66.86
84928;BME280;75189;50.640;19.242;2024-03-22T05:38:04;102015.59;;;10.13;66.83
84928;BME280;75189;50.640;19.242;2024-03-22T05:44:11;102022.11;;;10.09;66.88
84928;BME280;75189;50.640;19.242;2024-03-22T05:50:17;102030.08;;;10.13;66.80
84928;BME280;75189;50.640;19.242;2024-03-22T05:56:26;102024.68;;;10.12;66.81
84928;BME280;75189;50.640;19.242;2024-03-22T06:02:34;102034.75;;;10.10;66.88
84928;BME280;75189;50.640;19.242;2024-03-22T06:08:40;102036.41;;;10.14;66.84
84928;BME280;75189;50.640;19.242;2024-03-22T06:15:07;102029.13;;;10.14;66.90
84928;BME280;75189;50.640;19.242;2024-03-22T06:21:15;102040.70;;;10.19;66.92
84928;BME280;75189;50.640;19.242;2024-03-22T06:27:22;102034.30;;;10.20;66.92
84928;BME280;75189;50.640;19.242;2024-03-22T06:33:29;102027.11;;;10.19;66.95
84928;BME280;75189;50.640;19.242;2024-03-22T06:39:36;102033.38;;;10.22;66.96
84928;BME280;75189;50.640;19.242;2024-03-22T06:45:43;102043.43;;;10.19;67.03
84928;BME280;75189;50.640;19.242;2024-03-22T06:51:49;102036.48;;;10.12;67.12
84928;BME280;75189;50.640;19.242;2024-03-22T06:57:56;102039.75;;;9.99;67.14
84928;BME280;75189;50.640;19.242;2024-03-22T07:04:24;102034.78;;;9.86;67.16
84928;BME280;75189;50.640;19.242;2024-03-22T07:10:30;102036.47;;;9.89;66.93
84928;BME280;75189;50.640;19.242;2024-03-22T07:16:40;102038.31;;;9.88;66.73
84928;BME280;75189;50.640;19.242;2024-03-22T07:22:46;102036.55;;;9.87;66.67
84928;BME280;75189;50.640;19.242;2024-03-22T07:28:53;102042.17;;;9.83;66.67
84928;BME280;75189;50.640;19.242;2024-03-22T07:35:00;102036.31;;;9.70;66.67
84928;BME280;75189;50.640;19.242;2024-03-22T07:41:07;102035.56;;;9.66;66.72
84928;BME280;75189;50.640;19.242;2024-03-22T07:47:14;102025.04;;;9.57;66.96
84928;BME280;75189;50.640;19.242;2024-03-22T07:53:41;102034.97;;;9.58;66.98
84928;BME280;75189;50.640;19.242;2024-03-22T07:59:47;102035.78;;;9.60;67.12
84928;BME280;75189;50.640;19.242;2024-03-22T08:05:54;102037.59;;;9.61;67.28
84928;BME280;75189;50.640;19.242;2024-03-22T08:12:02;102040.12;;;9.66;67.28
84928;BME280;75189;50.640;19.242;2024-03-22T08:18:08;102036.38;;;9.68;67.38
84928;BME280;75189;50.640;19.242;2024-03-22T08:24:18;102039.98;;;9.69;67.42
84928;BME280;75189;50.640;19.242;2024-03-22T08:30:25;102035.51;;;9.68;67.65
84928;BME280;75189;50.640;19.242;2024-03-22T08:36:33;102037.27;;;9.69;67.85
84928;BME280;75189;50.640;19.242;2024-03-22T08:42:58;102038.11;;;9.71;68.02
84928;BME280;75189;50.640;19.242;2024-03-22T08:49:06;102044.17;;;9.78;68.03
84928;BME280;75189;50.640;19.242;2024-03-22T08:55:13;102038.49;;;9.84;68.06
84928;BME280;75189;50.640;19.242;2024-03-22T09:01:21;102030.04;;;9.91;68.01
84928;BME280;75189;50.640;19.242;2024-03-22T09:07:28;102022.66;;;9.95;68.03
84928;BME280;75189;50.640;19.242;2024-03-22T09:13:35;102019.80;;;9.98;67.94
84928;BME280;75189;50.640;19.242;2024-03-22T09:19:42;102014.31;;;10.00;67.89
84928;BME280;75189;50.640;19.242;2024-03-22T09:25:49;102017.73;;;10.05;67.81
84928;BME280;75189;50.640;19.242;2024-03-22T09:32:15;102012.10;;;10.09;67.73
84928;BME280;75189;50.640;19.242;2024-03-22T09:38:21;102008.24;;;10.15;67.65
84928;BME280;75189;50.640;19.242;2024-03-22T09:44:29;102008.94;;;10.20;67.51
84928;BME280;75189;50.640;19.242;2024-03-22T09:50:37;102004.23;;;10.25;67.41
84928;BME280;75189;50.640;19.242;2024-03-22T09:56:48;102000.43;;;10.29;67.46
84928;BME280;75189;50.640;19.242;2024-03-22T10:02:57;101982.23;;;10.31;67.55
84928;BME280;75189;50.640;19.242;2024-03-22T10:09:05;101980.20;;;10.57;67.50
84928;BME280;75189;50.640;19.242;2024-03-22T10:15:11;101971.52;;;10.69;67.35
84928;BME280;75189;50.640;19.242;2024-03-22T10:21:32;101955.66;;;10.79;66.97
84928;BME280;75189;50.640;19.242;2024-03-22T10:27:40;101963.42;;;10.88;66.75
84928;BME280;75189;50.640;19.242;2024-03-22T10:33:46;101956.47;;;11.01;66.35
84928;BME280;75189;50.640;19.242;2024-03-22T10:39:55;101945.74;;;11.17;66.12
84928;BME280;75189;50.640;19.242;2024-03-22T10:46:04;101940.05;;;11.42;65.67
84928;BME280;75189;50.640;19.242;2024-03-22T10:52:13;101930.83;;;11.63;65.46
84928;BME280;75189;50.640;19.242;2024-03-22T10:58:21;101920.59;;;11.87;64.29
84928;BME280;75189;50.640;19.242;2024-03-22T11:04:30;101919.07;;;12.18;63.89
84928;BME280;75189;50.640;19.242;2024-03-22T11:10:49;101909.78;;;12.39;63.62
84928;BME280;75189;50.640;19.242;2024-03-22T11:16:55;101897.66;;;12.62;63.04
84928;BME280;75189;50.640;19.242;2024-03-22T11:23:06;101879.72;;;12.74;62.09
84928;BME280;75189;50.640;19.242;2024-03-22T11:29:14;101872.73;;;12.86;61.25
84928;BME280;75189;50.640;19.242;2024-03-22T11:35:21;101872.28;;;12.93;60.04
84928;BME280;75189;50.640;19.242;2024-03-22T11:41:30;101855.48;;;13.01;60.36
84928;BME280;75189;50.640;19.242;2024-03-22T11:47:37;101856.82;;;13.10;59.25
84928;BME280;75189;50.640;19.242;2024-03-22T11:53:54;101863.63;;;13.18;59.17
84928;BME280;75189;50.640;19.242;2024-03-22T12:00:07;101860.70;;;13.21;58.76
84928;BME280;75189;50.640;19.242;2024-03-22T12:06:18;101844.49;;;13.18;58.58
84928;BME280;75189;50.640;19.242;2024-03-22T12:12:27;101836.45;;;13.15;58.34
84928;BME280;75189;50.640;19.242;2024-03-22T12:18:34;101841.14;;;13.13;58.18
84928;BME280;75189;50.640;19.242;2024-03-22T12:24:41;101830.20;;;13.13;58.22
84928;BME280;75189;50.640;19.242;2024-03-22T12:30:49;101816.04;;;13.22;58.29
84928;BME280;75189;50.640;19.242;2024-03-22T12:36:56;101811.20;;;13.28;57.90
84928;BME280;75189;50.640;19.242;2024-03-22T12:43:04;101798.76;;;13.38;57.60
84928;BME280;75189;50.640;19.242;2024-03-22T12:49:22;101778.64;;;13.39;57.02
84928;BME280;75189;50.640;19.242;2024-03-22T12:55:28;101773.88;;;13.42;57.28
84928;BME280;75189;50.640;19.242;2024-03-22T13:01:38;101763.21;;;13.38;57.14
84928;BME280;75189;50.640;19.242;2024-03-22T13:07:45;101763.10;;;13.39;57.23
84928;BME280;75189;50.640;19.242;2024-03-22T13:13:52;101751.76;;;13.31;56.73
84928;BME280;75189;50.640;19.242;2024-03-22T13:20:00;101751.66;;;13.33;56.62
84928;BME280;75189;50.640;19.242;2024-03-22T13:26:06;101739.14;;;13.29;56.53
84928;BME280;75189;50.640;19.242;2024-03-22T13:32:14;101752.91;;;13.27;56.64
84928;BME280;75189;50.640;19.242;2024-03-22T13:38:39;101731.55;;;13.34;56.87
84928;BME280;75189;50.640;19.242;2024-03-22T13:44:45;101734.38;;;13.32;56.52
84928;BME280;75189;50.640;19.242;2024-03-22T13:50:53;101730.32;;;13.23;56.35
84928;BME280;75189;50.640;19.242;2024-03-22T13:57:00;101717.67;;;13.21;56.17
84928;BME280;75189;50.640;19.242;2024-03-22T14:03:07;101706.23;;;13.14;56.21
84928;BME280;75189;50.640;19.242;2024-03-22T14:09:14;101710.01;;;13.12;56.13
84928;BME280;75189;50.640;19.242;2024-03-22T14:15:21;101705.95;;;13.03;56.14
84928;BME280;75189;50.640;19.242;2024-03-22T14:21:32;101695.55;;;12.94;55.96
84928;BME280;75189;50.640;19.242;2024-03-22T14:27:55;101700.14;;;12.93;56.10
84928;BME280;75189;50.640;19.242;2024-03-22T14:34:03;101690.02;;;12.95;56.20
84928;BME280;75189;50.640;19.242;2024-03-22T14:40:10;101682.96;;;12.91;55.92
84928;BME280;75189;50.640;19.242;2024-03-22T14:46:18;101668.59;;;12.88;55.75
84928;BME280;75189;50.640;19.242;2024-03-22T14:52:31;101660.30;;;12.89;55.82
84928;BME280;75189;50.640;19.242;2024-03-22T14:58:38;101668.59;;;12.88;55.63
84928;BME280;75189;50.640;19.242;2024-03-22T15:04:45;101662.35;;;12.86;55.66
84928;BME280;75189;50.640;19.242;2024-03-22T15:10:53;101649.73;;;12.83;55.67
84928;BME280;75189;50.640;19.242;2024-03-22T15:17:12;101651.48;;;12.84;55.78
84928;BME280;75189;50.640;19.242;2024-03-22T15:23:28;101639.16;;;12.77;55.95
84928;BME280;75189;50.640;19.242;2024-03-22T15:34:11;101638.91;;;12.82;55.81
84928;BME280;75189;50.640;19.242;2024-03-22T15:40:19;101633.70;;;12.77;55.83
84928;BME280;75189;50.640;19.242;2024-03-22T15:46:25;101632.12;;;12.73;56.10
84928;BME280;75189;50.640;19.242;2024-03-22T15:52:33;101622.07;;;12.73;56.22
84928;BME280;75189;50.640;19.242;2024-03-22T15:58:40;101614.31;;;12.66;56.41
84928;BME280;75189;50.640;19.242;2024-03-22T16:04:50;101622.15;;;12.56;56.67
84928;BME280;75189;50.640;19.242;2024-03-22T16:10:57;101616.17;;;12.49;56.81
84928;BME280;75189;50.640;19.242;2024-03-22T16:17:27;101611.95;;;12.44;56.85
84928;BME280;75189;50.640;19.242;2024-03-22T16:23:33;101614.13;;;12.37;57.00
84928;BME280;75189;50.640;19.242;2024-03-22T16:29:40;101604.70;;;12.27;57.15
84928;BME280;75189;50.640;19.242;2024-03-22T16:35:47;101611.65;;;12.17;57.43
84928;BME280;75189;50.640;19.242;2024-03-22T16:41:54;101588.73;;;12.04;57.72
84928;BME280;75189;50.640;19.242;2024-03-22T16:48:02;101588.63;;;12.05;58.01
84928;BME280;75189;50.640;19.242;2024-03-22T16:54:10;101583.79;;;11.94;58.33
84928;BME280;75189;50.640;19.242;2024-03-22T17:00:18;101588.52;;;11.73;58.84
84928;BME280;75189;50.640;19.242;2024-03-22T17:06:44;101596.26;;;11.65;59.31
84928;BME280;75189;50.640;19.242;2024-03-22T17:12:51;101587.45;;;11.60;59.44
84928;BME280;75189;50.640;19.242;2024-03-22T17:18:58;101585.02;;;11.54;59.62
84928;BME280;75189;50.640;19.242;2024-03-22T17:25:06;101578.95;;;11.49;59.74
84928;BME280;75189;50.640;19.242;2024-03-22T17:31:12;101570.13;;;11.44;59.96
84928;BME280;75189;50.640;19.242;2024-03-22T17:37:19;101554.17;;;11.36;60.21
84928;BME280;75189;50.640;19.242;2024-03-22T17:43:26;101550.18;;;11.26;60.54
84928;BME280;75189;50.640;19.242;2024-03-22T17:49:33;101549.39;;;11.24;60.66
84928;BME280;75189;50.640;19.242;2024-03-22T17:56:01;101541.28;;;11.22;60.88
84928;BME280;75189;50.640;19.242;2024-03-22T18:02:10;101544.44;;;11.15;61.20
84928;BME280;75189;50.640;19.242;2024-03-22T18:08:18;101538.25;;;11.11;61.40
84928;BME280;75189;50.640;19.242;2024-03-22T18:14:24;101526.80;;;11.05;61.65
84928;BME280;75189;50.640;19.242;2024-03-22T18:20:32;101519.91;;;10.98;61.88
84928;BME280;75189;50.640;19.242;2024-03-22T18:26:38;101517.33;;;10.94;62.05
84928;BME280;75189;50.640;19.242;2024-03-22T18:32:45;101503.95;;;10.90;62.51
84928;BME280;75189;50.640;19.242;2024-03-22T18:38:52;101503.31;;;10.85;62.69
84928;BME280;75189;50.640;19.242;2024-03-22T18:45:18;101501.56;;;10.84;62.85
84928;BME280;75189;50.640;19.242;2024-03-22T18:51:24;101497.08;;;10.83;62.86
84928;BME280;75189;50.640;19.242;2024-03-22T18:57:32;101489.88;;;10.82;62.90
84928;BME280;75189;50.640;19.242;2024-03-22T19:03:38;101489.06;;;10.80;63.02
84928;BME280;75189;50.640;19.242;2024-03-22T19:09:45;101479.87;;;10.82;63.12
84928;BME280;75189;50.640;19.242;2024-03-22T19:15:56;101469.76;;;10.84;63.21
84928;BME280;75189;50.640;19.242;2024-03-22T19:22:04;101464.47;;;10.81;63.23
84928;BME280;75189;50.640;19.242;2024-03-22T19:28:11;101453.81;;;10.77;63.16
84928;BME280;75189;50.640;19.242;2024-03-22T19:34:35;101461.49;;;10.86;63.18
84928;BME280;75189;50.640;19.242;2024-03-22T19:40:44;101453.33;;;10.86;63.13
84928;BME280;75189;50.640;19.242;2024-03-22T19:46:51;101448.79;;;10.86;63.12
84928;BME280;75189;50.640;19.242;2024-03-22T19:52:58;101451.58;;;10.85;63.09
84928;BME280;75189;50.640;19.242;2024-03-22T19:59:05;101438.05;;;10.83;63.08
84928;BME280;75189;50.640;19.242;2024-03-22T20:05:13;101433.48;;;10.84;63.00
84928;BME280;75189;50.640;19.242;2024-03-22T20:11:19;101433.33;;;10.87;62.92
84928;BME280;75189;50.640;19.242;2024-03-22T20:17:26;101424.04;;;10.91;62.72
84928;BME280;75189;50.640;19.242;2024-03-22T20:23:52;101415.05;;;10.89;62.61
84928;BME280;75189;50.640;19.242;2024-03-22T20:29:59;101423.13;;;10.90;62.47
84928;BME280;75189;50.640;19.242;2024-03-22T20:36:06;101415.87;;;10.91;62.34
